sensor_id;sensor_type;location;lat;lon;timestamp;pressure;altitude;pressure_sealevel;temperature
1532;BMP280;759;53.170;8.210;2022-07-23T00:00:00;100978.41;;;16.99
1532;BMP280;759;53.170;8.210;2022-07-23T00:02:25;100968.19;;;16.90
1532;BMP280;759;53.170;8.210;2022-07-23T00:04:50;100958.00;;;16.81
1532;BMP280;759;53.170;8.210;2022-07-23T00:07:16;100971.13;;;16.96
1532;BMP280;759;53.170;8.210;2022-07-23T00:09:42;100971.66;;;16.90
1532;BMP280;759;53.170;8.210;2022-07-23T00:12:07;100965.97;;;17.01
1532;BMP280;759;53.170;8.210;2022-07-23T00:14:32;100968.94;;;16.90
1532;BMP280;759;53.170;8.210;2022-07-23T00:16:58;100967.88;;;16.88
1532;BMP280;759;53.170;8.210;2022-07-23T00:19:24;100964.75;;;16.89
1532;BMP280;759;53.170;8.210;2022-07-23T00:21:50;100963.97;;;16.89
1532;BMP280;759;53.170;8.210;2022-07-23T00:24:15;100986.03;;;16.87
1532;BMP280;759;53.170;8.210;2022-07-23T00:26:41;100980.66;;;16.71
1532;BMP280;759;53.170;8.210;2022-07-23T00:29:06;100973.06;;;16.66
1532;BMP280;759;53.170;8.210;2022-07-23T00:31:31;100942.91;;;16.38
1532;BMP280;759;53.170;8.210;2022-07-23T00:33:57;100970.91;;;16.61
1532;BMP280;759;53.170;8.210;2022-07-23T00:36:23;100963.72;;;16.71
1532;BMP280;759;53.170;8.210;2022-07-23T00:38:49;100973.13;;;16.79
1532;BMP280;759;53.170;8.210;2022-07-23T00:41:14;100971.50;;;16.81
1532;BMP280;759;53.170;8.210;2022-07-23T00:43:40;100957.28;;;16.64
1532;BMP280;759;53.170;8.210;2022-07-23T00:46:05;100949.41;;;16.70
1532;BMP280;759;53.170;8.210;2022-07-23T00:48:34;100948.19;;;16.58
1532;BMP280;759;53.170;8.210;2022-07-23T00:50:59;100922.56;;;16.50
1532;BMP280;759;53.170;8.210;2022-07-23T00:53:25;100948.25;;;16.71
1532;BMP280;759;53.170;8.210;2022-07-23T00:55:50;100937.72;;;16.60
1532;BMP280;759;53.170;8.210;2022-07-23T00:58:16;100950.38;;;16.63
1532;BMP280;759;53.170;8.210;2022-07-23T01:00:42;100976.47;;;16.54
1532;BMP280;759;53.170;8.210;2022-07-23T01:03:07;100952.69;;;16.49
1532;BMP280;759;53.170;8.210;2022-07-23T01:05:33;100956.28;;;16.58
1532;BMP280;759;53.170;8.210;2022-07-23T01:07:58;100963.31;;;16.56
1532;BMP280;759;53.170;8.210;2022-07-23T01:10:24;100950.81;;;16.62
1532;BMP280;759;53.170;8.210;2022-07-23T01:12:57;100953.16;;;16.60
1532;BMP280;759;53.170;8.210;2022-07-23T01:15:23;100954.34;;;16.59
1532;BMP280;759;53.170;8.210;2022-07-23T01:17:48;100944.72;;;16.58
1532;BMP280;759;53.170;8.210;2022-07-23T01:20:14;100954.03;;;16.57
1532;BMP280;759;53.170;8.210;2022-07-23T01:22:40;100908.47;;;16.26
1532;BMP280;759;53.170;8.210;2022-07-23T01:25:06;100926.81;;;16.35
1532;BMP280;759;53.170;8.210;2022-07-23T01:27:31;100950.47;;;16.43
1532;BMP280;759;53.170;8.210;2022-07-23T01:29:57;100944.44;;;16.39
1532;BMP280;759;53.170;8.210;2022-07-23T01:32:24;100954.03;;;16.57
1532;BMP280;759;53.170;8.210;2022-07-23T01:34:50;100944.25;;;16.47
1532;BMP280;759;53.170;8.210;2022-07-23T01:37:15;100946.44;;;16.52
1532;BMP280;759;53.170;8.210;2022-07-23T01:39:41;100941.06;;;16.52
1532;BMP280;759;53.170;8.210;2022-07-23T01:42:06;100930.06;;;16.42
1532;BMP280;759;53.170;8.210;2022-07-23T01:44:32;100934.53;;;16.49
1532;BMP280;759;53.170;8.210;2022-07-23T01:46:57;100934.88;;;16.51
1532;BMP280;759;53.170;8.210;2022-07-23T01:49:22;100946.28;;;16.42
1532;BMP280;759;53.170;8.210;2022-07-23T01:51:48;100911.91;;;16.14
1532;BMP280;759;53.170;8.210;2022-07-23T01:54:30;100877.91;;;16.00
1532;BMP280;759;53.170;8.210;2022-07-23T01:56:55;100937.84;;;16.40
1532;BMP280;759;53.170;8.210;2022-07-23T01:59:21;100937.56;;;16.51
1532;BMP280;759;53.170;8.210;2022-07-23T02:01:47;100901.91;;;16.27
1532;BMP280;759;53.170;8.210;2022-07-23T02:04:12;100911.78;;;16.34
1532;BMP280;759;53.170;8.210;2022-07-23T02:06:38;100925.00;;;16.44
1532;BMP280;759;53.170;8.210;2022-07-23T02:09:03;100915.91;;;16.38
1532;BMP280;759;53.170;8.210;2022-07-23T02:11:28;100903.78;;;16.30
1532;BMP280;759;53.170;8.210;2022-07-23T02:13:54;100904.13;;;16.16
1532;BMP280;759;53.170;8.210;2022-07-23T02:16:19;100895.88;;;16.07
1532;BMP280;759;53.170;8.210;2022-07-23T02:18:45;100892.16;;;16.01
1532;BMP280;759;53.170;8.210;2022-07-23T02:21:12;100906.50;;;16.14
1532;BMP280;759;53.170;8.210;2022-07-23T02:23:37;100861.97;;;15.89
1532;BMP280;759;53.170;8.210;2022-07-23T02:26:03;100858.53;;;15.89
1532;BMP280;759;53.170;8.210;2022-07-23T02:28:28;100882.13;;;16.01
1532;BMP280;759;53.170;8.210;2022-07-23T02:30:53;100902.59;;;16.15
1532;BMP280;759;53.170;8.210;2022-07-23T02:33:19;100878.31;;;15.98
1532;BMP280;759;53.170;8.210;2022-07-23T02:35:44;100903.38;;;16.15
1532;BMP280;759;53.170;8.210;2022-07-23T02:38:09;100889.13;;;15.98
1532;BMP280;759;53.170;8.210;2022-07-23T02:40:35;100880.03;;;15.92
1532;BMP280;759;53.170;8.210;2022-07-23T02:43:00;100884.06;;;16.01
1532;BMP280;759;53.170;8.210;2022-07-23T02:45:26;100889.31;;;15.91
1532;BMP280;759;53.170;8.210;2022-07-23T02:47:51;100879.53;;;15.81
1532;BMP280;759;53.170;8.210;2022-07-23T02:50:17;100878.75;;;15.81
1532;BMP280;759;53.170;8.210;2022-07-23T02:52:43;100905.66;;;16.01
1532;BMP280;759;53.170;8.210;2022-07-23T02:55:08;100882.72;;;15.76
1532;BMP280;759;53.170;8.210;2022-07-23T02:57:34;100882.56;;;15.83
1532;BMP280;759;53.170;8.210;2022-07-23T02:59:59;100887.94;;;15.83
1532;BMP280;759;53.170;8.210;2022-07-23T03:02:25;100897.97;;;15.83
1532;BMP280;759;53.170;8.210;2022-07-23T03:04:52;100895.34;;;15.79
1532;BMP280;759;53.170;8.210;2022-07-23T03:07:18;100888.09;;;15.76
1532;BMP280;759;53.170;8.210;2022-07-23T03:09:43;100878.16;;;15.73
1532;BMP280;759;53.170;8.210;2022-07-23T03:12:09;100900.91;;;15.88
1532;BMP280;759;53.170;8.210;2022-07-23T03:14:34;100890.97;;;15.69
1532;BMP280;759;53.170;8.210;2022-07-23T03:16:59;100877.72;;;15.58
1532;BMP280;759;53.170;8.210;2022-07-23T03:19:25;100890.47;;;15.74
1532;BMP280;759;53.170;8.210;2022-07-23T03:21:51;100866.84;;;15.62
1532;BMP280;759;53.170;8.210;2022-07-23T03:24:17;100899.81;;;15.69
1532;BMP280;759;53.170;8.210;2022-07-23T03:26:45;100892.16;;;15.68
1532;BMP280;759;53.170;8.210;2022-07-23T03:29:11;100885.09;;;15.74
1532;BMP280;759;53.170;8.210;2022-07-23T03:31:36;100883.69;;;15.66
1532;BMP280;759;53.170;8.210;2022-07-23T03:34:02;100901.28;;;15.74
1532;BMP280;759;53.170;8.210;2022-07-23T03:36:27;100874.06;;;15.48
1532;BMP280;759;53.170;8.210;2022-07-23T03:38:53;100816.13;;;15.04
1532;BMP280;759;53.170;8.210;2022-07-23T03:41:19;100840.34;;;15.24
1532;BMP280;759;53.170;8.210;2022-07-23T03:43:45;100887.16;;;15.50
1532;BMP280;759;53.170;8.210;2022-07-23T03:46:11;100884.84;;;15.48
1532;BMP280;759;53.170;8.210;2022-07-23T03:48:36;100899.03;;;15.36
1532;BMP280;759;53.170;8.210;2022-07-23T03:51:02;100899.84;;;15.33
1532;BMP280;759;53.170;8.210;2022-07-23T03:53:28;100912.97;;;15.31
1532;BMP280;759;53.170;8.210;2022-07-23T03:55:53;100877.47;;;14.96
1532;BMP280;759;53.170;8.210;2022-07-23T03:58:18;100864.38;;;14.98
1532;BMP280;759;53.170;8.210;2022-07-23T04:00:44;100895.56;;;15.16
1532;BMP280;759;53.170;8.210;2022-07-23T04:03:09;100876.66;;;14.99
1532;BMP280;759;53.170;8.210;2022-07-23T04:05:35;100892.59;;;15.10
1532;BMP280;759;53.170;8.210;2022-07-23T04:08:00;100897.91;;;15.14
1532;BMP280;759;53.170;8.210;2022-07-23T04:10:26;100908.78;;;15.10
1532;BMP280;759;53.170;8.210;2022-07-23T04:12:51;100893.66;;;14.96
1532;BMP280;759;53.170;8.210;2022-07-23T04:15:16;100881.75;;;14.94
1532;BMP280;759;53.170;8.210;2022-07-23T04:17:42;100899.25;;;15.05
1532;BMP280;759;53.170;8.210;2022-07-23T04:20:09;100873.91;;;14.83
1532;BMP280;759;53.170;8.210;2022-07-23T04:22:35;100881.97;;;15.03
1532;BMP280;759;53.170;8.210;2022-07-23T04:25:01;100892.06;;;14.99
1532;BMP280;759;53.170;8.210;2022-07-23T04:27:27;100887.97;;;14.91
1532;BMP280;759;53.170;8.210;2022-07-23T04:29:52;100898.97;;;15.00
1532;BMP280;759;53.170;8.210;2022-07-23T04:32:18;100886.66;;;14.99
1532;BMP280;759;53.170;8.210;2022-07-23T04:34:43;100891.66;;;15.00
1532;BMP280;759;53.170;8.210;2022-07-23T04:37:08;100885.16;;;14.98
1532;BMP280;759;53.170;8.210;2022-07-23T04:39:34;100893.50;;;15.03
1532;BMP280;759;53.170;8.210;2022-07-23T04:41:59;100896.75;;;15.15
1532;BMP280;759;53.170;8.210;2022-07-23T04:44:25;100895.66;;;15.12
1532;BMP280;759;53.170;8.210;2022-07-23T04:46:50;100881.19;;;15.02
1532;BMP280;759;53.170;8.210;2022-07-23T04:49:15;100908.56;;;15.21
1532;BMP280;759;53.170;8.210;2022-07-23T04:51:41;100908.69;;;15.14
1532;BMP280;759;53.170;8.210;2022-07-23T04:54:06;100887.28;;;15.06
1532;BMP280;759;53.170;8.210;2022-07-23T04:56:32;100895.69;;;15.08
1532;BMP280;759;53.170;8.210;2022-07-23T04:58:57;100900.97;;;15.16
1532;BMP280;759;53.170;8.210;2022-07-23T05:01:23;100911.75;;;15.16
1532;BMP280;759;53.170;8.210;2022-07-23T05:03:48;100904.06;;;15.14
1532;BMP280;759;53.170;8.210;2022-07-23T05:06:14;100908.44;;;15.28
1532;BMP280;759;53.170;8.210;2022-07-23T05:08:40;100916.00;;;15.33
1532;BMP280;759;53.170;8.210;2022-07-23T05:11:05;100914.72;;;15.41
1532;BMP280;759;53.170;8.210;2022-07-23T05:13:30;100911.75;;;15.52
1532;BMP280;759;53.170;8.210;2022-07-23T05:15:56;100921.84;;;15.48
1532;BMP280;759;53.170;8.210;2022-07-23T05:18:21;100904.09;;;15.50
1532;BMP280;759;53.170;8.210;2022-07-23T05:20:47;100902.91;;;15.51
1532;BMP280;759;53.170;8.210;2022-07-23T05:23:12;100891.88;;;15.46
1532;BMP280;759;53.170;8.210;2022-07-23T05:25:39;100894.69;;;15.59
1532;BMP280;759;53.170;8.210;2022-07-23T05:28:04;100909.78;;;15.72
1532;BMP280;759;53.170;8.210;2022-07-23T05:30:30;100896.16;;;15.60
1532;BMP280;759;53.170;8.210;2022-07-23T05:32:55;100906.19;;;15.59
1532;BMP280;759;53.170;8.210;2022-07-23T05:35:21;100904.28;;;15.76
1532;BMP280;759;53.170;8.210;2022-07-23T05:37:46;100927.31;;;15.81
1532;BMP280;759;53.170;8.210;2022-07-23T05:40:12;100922.75;;;15.77
1532;BMP280;759;53.170;8.210;2022-07-23T05:42:39;100936.59;;;15.96
1532;BMP280;759;53.170;8.210;2022-07-23T05:45:05;100940.59;;;16.08
1532;BMP280;759;53.170;8.210;2022-07-23T05:47:44;100923.00;;;15.99
1532;BMP280;759;53.170;8.210;2022-07-23T05:50:11;100939.41;;;16.25
1532;BMP280;759;53.170;8.210;2022-07-23T05:52:37;100930.38;;;16.15
1532;BMP280;759;53.170;8.210;2022-07-23T05:55:04;100938.94;;;16.43
1532;BMP280;759;53.170;8.210;2022-07-23T05:57:29;100926.97;;;16.44
1532;BMP280;759;53.170;8.210;2022-07-23T05:59:54;100941.72;;;16.56
1532;BMP280;759;53.170;8.210;2022-07-23T06:02:20;100949.97;;;16.65
1532;BMP280;759;53.170;8.210;2022-07-23T06:04:45;100955.53;;;16.87
1532;BMP280;759;53.170;8.210;2022-07-23T06:07:11;100955.75;;;16.80
1532;BMP280;759;53.170;8.210;2022-07-23T06:09:36;100942.09;;;16.71
1532;BMP280;759;53.170;8.210;2022-07-23T06:12:02;100935.72;;;16.77
1532;BMP280;759;53.170;8.210;2022-07-23T06:14:27;100956.31;;;16.87
1532;BMP280;759;53.170;8.210;2022-07-23T06:16:53;100956.00;;;16.98
1532;BMP280;759;53.170;8.210;2022-07-23T06:19:19;100942.13;;;16.83
1532;BMP280;759;53.170;8.210;2022-07-23T06:21:44;100950.22;;;16.54
1532;BMP280;759;53.170;8.210;2022-07-23T06:24:09;100972.94;;;16.86
1532;BMP280;759;53.170;8.210;2022-07-23T06:26:35;100979.91;;;17.00
1532;BMP280;759;53.170;8.210;2022-07-23T06:29:00;100974.19;;;16.98
1532;BMP280;759;53.170;8.210;2022-07-23T06:31:26;100983.13;;;16.95
1532;BMP280;759;53.170;8.210;2022-07-23T06:33:51;100968.16;;;16.77
1532;BMP280;759;53.170;8.210;2022-07-23T06:36:17;100960.09;;;16.61
1532;BMP280;759;53.170;8.210;2022-07-23T06:38:42;100986.53;;;16.99
1532;BMP280;759;53.170;8.210;2022-07-23T06:41:08;100979.31;;;17.08
1532;BMP280;759;53.170;8.210;2022-07-23T06:43:34;100974.69;;;16.93
1532;BMP280;759;53.170;8.210;2022-07-23T06:45:59;100967.38;;;16.93
1532;BMP280;759;53.170;8.210;2022-07-23T06:48:25;100974.25;;;16.94
1532;BMP280;759;53.170;8.210;2022-07-23T06:50:50;100989.66;;;16.97
1532;BMP280;759;53.170;8.210;2022-07-23T06:53:17;100972.91;;;16.73
1532;BMP280;759;53.170;8.210;2022-07-23T06:55:43;100976.09;;;16.68
1532;BMP280;759;53.170;8.210;2022-07-23T06:58:08;100993.28;;;16.90
1532;BMP280;759;53.170;8.210;2022-07-23T07:00:35;100974.94;;;16.98
1532;BMP280;759;53.170;8.210;2022-07-23T07:03:01;100980.09;;;16.93
1532;BMP280;759;53.170;8.210;2022-07-23T07:05:28;100986.03;;;16.87
1532;BMP280;759;53.170;8.210;2022-07-23T07:07:54;100982.63;;;16.71
1532;BMP280;759;53.170;8.210;2022-07-23T07:10:20;100992.13;;;16.75
1532;BMP280;759;53.170;8.210;2022-07-23T07:12:46;100977.31;;;16.51
1532;BMP280;759;53.170;8.210;2022-07-23T07:15:11;100997.13;;;16.77
1532;BMP280;759;53.170;8.210;2022-07-23T07:17:37;101004.63;;;16.85
1532;BMP280;759;53.170;8.210;2022-07-23T07:20:03;101002.78;;;16.82
1532;BMP280;759;53.170;8.210;2022-07-23T07:22:28;101007.19;;;16.89
1532;BMP280;759;53.170;8.210;2022-07-23T07:24:54;100991.22;;;16.82
1532;BMP280;759;53.170;8.210;2022-07-23T07:27:19;100995.34;;;16.70
1532;BMP280;759;53.170;8.210;2022-07-23T07:29:45;101005.63;;;16.92
1532;BMP280;759;53.170;8.210;2022-07-23T07:32:10;101006.75;;;17.07
1532;BMP280;759;53.170;8.210;2022-07-23T07:34:35;101006.09;;;17.03
1532;BMP280;759;53.170;8.210;2022-07-23T07:37:01;100997.75;;;17.10
1532;BMP280;759;53.170;8.210;2022-07-23T07:39:26;100989.47;;;17.17
1532;BMP280;759;53.170;8.210;2022-07-23T07:41:52;100993.09;;;17.40
1532;BMP280;759;53.170;8.210;2022-07-23T07:44:17;101011.16;;;17.55
1532;BMP280;759;53.170;8.210;2022-07-23T07:46:42;101013.56;;;17.66
1532;BMP280;759;53.170;8.210;2022-07-23T07:49:08;101006.63;;;17.40
1532;BMP280;759;53.170;8.210;2022-07-23T07:51:33;100994.59;;;17.41
1532;BMP280;759;53.170;8.210;2022-07-23T07:53:59;101017.69;;;17.58
1532;BMP280;759;53.170;8.210;2022-07-23T07:56:24;101014.63;;;17.56
1532;BMP280;759;53.170;8.210;2022-07-23T07:58:50;101012.84;;;17.36
1532;BMP280;759;53.170;8.210;2022-07-23T08:01:15;101039.09;;;17.52
1532;BMP280;759;53.170;8.210;2022-07-23T08:03:42;101035.53;;;17.81
1532;BMP280;759;53.170;8.210;2022-07-23T08:06:07;101040.00;;;18.13
1532;BMP280;759;53.170;8.210;2022-07-23T08:08:33;101035.88;;;17.96
1532;BMP280;759;53.170;8.210;2022-07-23T08:10:58;101023.97;;;17.80
1532;BMP280;759;53.170;8.210;2022-07-23T08:13:24;101037.06;;;17.82
1532;BMP280;759;53.170;8.210;2022-07-23T08:15:49;101024.84;;;18.03
1532;BMP280;759;53.170;8.210;2022-07-23T08:18:14;101028.31;;;18.03
1532;BMP280;759;53.170;8.210;2022-07-23T08:20:40;101034.50;;;18.39
1532;BMP280;759;53.170;8.210;2022-07-23T08:23:07;101043.09;;;18.37
1532;BMP280;759;53.170;8.210;2022-07-23T08:25:35;101041.16;;;18.38
1532;BMP280;759;53.170;8.210;2022-07-23T08:28:03;101036.78;;;18.40
1532;BMP280;759;53.170;8.210;2022-07-23T08:30:30;101044.94;;;18.27
1532;BMP280;759;53.170;8.210;2022-07-23T08:32:57;101051.50;;;18.52
1532;BMP280;759;53.170;8.210;2022-07-23T08:35:25;101016.34;;;18.26
1532;BMP280;759;53.170;8.210;2022-07-23T08:37:51;101005.56;;;18.48
1532;BMP280;759;53.170;8.210;2022-07-23T08:40:16;101041.94;;;18.60
1532;BMP280;759;53.170;8.210;2022-07-23T08:42:42;101003.31;;;18.47
1532;BMP280;759;53.170;8.210;2022-07-23T08:45:08;101027.44;;;18.76
1532;BMP280;759;53.170;8.210;2022-07-23T08:47:37;101051.13;;;19.19
1532;BMP280;759;53.170;8.210;2022-07-23T08:50:03;101039.75;;;19.34
1532;BMP280;759;53.170;8.210;2022-07-23T08:52:30;101040.81;;;19.14
1532;BMP280;759;53.170;8.210;2022-07-23T08:54:56;101031.00;;;18.86
1532;BMP280;759;53.170;8.210;2022-07-23T08:57:22;101043.69;;;18.89
1532;BMP280;759;53.170;8.210;2022-07-23T08:59:47;101019.44;;;18.72
1532;BMP280;759;53.170;8.210;2022-07-23T09:02:13;101035.41;;;19.14
1532;BMP280;759;53.170;8.210;2022-07-23T09:04:39;101041.25;;;19.04
1532;BMP280;759;53.170;8.210;2022-07-23T09:07:04;101026.16;;;19.25
1532;BMP280;759;53.170;8.210;2022-07-23T09:09:30;101017.50;;;19.48
1532;BMP280;759;53.170;8.210;2022-07-23T09:12:08;101033.97;;;20.03
1532;BMP280;759;53.170;8.210;2022-07-23T09:14:40;101047.31;;;20.20
1532;BMP280;759;53.170;8.210;2022-07-23T09:17:15;101050.56;;;20.05
1532;BMP280;759;53.170;8.210;2022-07-23T09:19:42;101042.41;;;19.87
1532;BMP280;759;53.170;8.210;2022-07-23T09:22:20;101048.13;;;19.49
1532;BMP280;759;53.170;8.210;2022-07-23T09:25:06;101056.47;;;19.63
1532;BMP280;759;53.170;8.210;2022-07-23T09:27:56;101043.34;;;19.31
1532;BMP280;759;53.170;8.210;2022-07-23T09:30:24;101045.81;;;19.38
1532;BMP280;759;53.170;8.210;2022-07-23T09:33:16;101031.72;;;18.99
1532;BMP280;759;53.170;8.210;2022-07-23T09:38:18;101041.28;;;19.35
1532;BMP280;759;53.170;8.210;2022-07-23T09:40:45;101044.59;;;19.39
1532;BMP280;759;53.170;8.210;2022-07-23T09:43:12;101016.41;;;19.14
1532;BMP280;759;53.170;8.210;2022-07-23T09:45:38;101030.03;;;19.23
1532;BMP280;759;53.170;8.210;2022-07-23T09:48:16;101050.16;;;19.13
1532;BMP280;759;53.170;8.210;2022-07-23T09:50:42;101045.41;;;19.17
1532;BMP280;759;53.170;8.210;2022-07-23T09:53:08;101030.59;;;19.40
1532;BMP280;759;53.170;8.210;2022-07-23T09:55:35;101055.09;;;19.59
1532;BMP280;759;53.170;8.210;2022-07-23T09:58:06;101044.63;;;19.79
1532;BMP280;759;53.170;8.210;2022-07-23T10:00:38;101057.88;;;20.27
1532;BMP280;759;53.170;8.210;2022-07-23T10:03:05;101040.53;;;20.61
1532;BMP280;759;53.170;8.210;2022-07-23T10:05:31;101056.63;;;21.10
1532;BMP280;759;53.170;8.210;2022-07-23T10:07:59;101050.13;;;21.08
1532;BMP280;759;53.170;8.210;2022-07-23T10:10:26;101076.84;;;21.19
1532;BMP280;759;53.170;8.210;2022-07-23T10:12:54;101043.94;;;20.98
1532;BMP280;759;53.170;8.210;2022-07-23T10:15:39;101062.00;;;21.29
1532;BMP280;759;53.170;8.210;2022-07-23T10:18:05;101049.81;;;21.06
1532;BMP280;759;53.170;8.210;2022-07-23T10:20:31;101064.34;;;21.12
1532;BMP280;759;53.170;8.210;2022-07-23T10:23:39;101068.16;;;20.59
1532;BMP280;759;53.170;8.210;2022-07-23T10:26:32;101065.13;;;20.39
1532;BMP280;759;53.170;8.210;2022-07-23T10:29:22;101060.88;;;20.29
1532;BMP280;759;53.170;8.210;2022-07-23T10:31:58;101070.28;;;20.55
1532;BMP280;759;53.170;8.210;2022-07-23T10:37:01;101060.75;;;20.87
1532;BMP280;759;53.170;8.210;2022-07-23T10:39:34;101069.44;;;21.19
1532;BMP280;759;53.170;8.210;2022-07-23T10:42:14;101081.88;;;21.53
1532;BMP280;759;53.170;8.210;2022-07-23T10:47:08;101073.00;;;21.34
1532;BMP280;759;53.170;8.210;2022-07-23T10:49:34;101073.34;;;21.70
1532;BMP280;759;53.170;8.210;2022-07-23T10:54:41;101068.19;;;21.39
1532;BMP280;759;53.170;8.210;2022-07-23T10:57:08;101055.59;;;20.90
1532;BMP280;759;53.170;8.210;2022-07-23T11:02:45;101078.75;;;21.46
1532;BMP280;759;53.170;8.210;2022-07-23T11:05:17;101071.56;;;21.24
1532;BMP280;759;53.170;8.210;2022-07-23T11:34:43;101079.06;;;21.39
1532;BMP280;759;53.170;8.210;2022-07-23T11:37:11;101065.28;;;21.42
